Time;durP1;ratioP1;P1;durP2;ratioP2;P2;SDS_P1;SDS_P2;PMS_P1;PMS_P2;Temp;Humidity;BMP_temperature;BMP_pressure;BME280_temperature;BME280_humidity;BME280_pressure;Samples;Min_cycle;Max_cycle;Signal;HPM_P1;HPM_P2
2022/03/12 00:01:44;;;;;;;19.85;7.95;;;2.90;47.80;;;;;;5070226;28;20025;-79
2022/03/12 00:04:10;;;;;;;17.20;7.15;;;2.90;48.00;;;;;;5054955;28;20035;-79
2022/03/12 00:06:36;;;;;;;15.30;8.13;;;2.80;48.50;;;;;;5072648;28;20024;-79
2022/03/12 00:09:02;;;;;;;16.05;7.80;;;2.80;48.60;;;;;;5072777;28;20021;-80
2022/03/12 00:11:34;;;;;;;16.38;7.00;;;2.80;48.00;;;;;;5054645;28;20032;-79
2022/03/12 00:14:02;;;;;;;15.18;7.57;;;2.80;48.30;;;;;;5072030;28;20127;-79
2022/03/12 00:16:29;;;;;;;21.48;8.73;;;2.80;48.80;;;;;;5073030;28;20082;-79
2022/03/12 00:18:58;;;;;;;20.60;7.22;;;2.70;48.60;;;;;;5072913;28;20056;-79
2022/03/12 00:21:24;;;;;;;14.80;7.60;;;2.70;49.20;;;;;;5072957;28;20427;-79
2022/03/12 00:23:56;;;;;;;13.43;7.38;;;2.70;49.10;;;;;;5071207;28;20028;-79
2022/03/12 00:26:23;;;;;;;15.13;8.82;;;2.70;49.20;;;;;;5072840;28;20810;-79
2022/03/12 00:28:52;;;;;;;15.07;7.85;;;2.60;49.70;;;;;;5072681;28;20028;-79
2022/03/12 00:31:18;;;;;;;14.27;7.28;;;2.60;49.90;;;;;;5072852;28;20094;-79
2022/03/12 00:33:44;;;;;;;14.00;7.88;;;2.60;50.00;;;;;;5071901;28;20111;-79
2022/03/12 00:36:11;;;;;;;14.95;7.07;;;2.60;49.70;;;;;;5073062;28;20056;-79
2022/03/12 00:38:38;;;;;;;14.45;7.63;;;2.60;49.60;;;;;;5072282;28;20031;-79
2022/03/12 00:41:07;;;;;;;15.55;8.02;;;2.60;50.30;;;;;;5072563;28;20033;-79
2022/03/12 00:43:33;;;;;;;15.75;7.25;;;2.60;49.80;;;;;;5054368;28;20021;-79
2022/03/12 00:45:59;;;;;;;24.35;8.75;;;2.60;49.60;;;;;;5054674;28;20127;-79
2022/03/12 00:48:25;;;;;;;14.90;7.85;;;2.50;48.90;;;;;;5054502;28;20024;-79
2022/03/12 00:50:50;;;;;;;13.75;6.97;;;2.50;49.80;;;;;;5072734;28;20032;-79
2022/03/12 00:53:16;;;;;;;13.38;7.15;;;2.40;50.60;;;;;;5071523;28;20037;-79
2022/03/12 00:55:42;;;;;;;16.17;7.25;;;2.40;50.60;;;;;;5072766;28;20369;-79
2022/03/12 00:58:08;;;;;;;14.52;7.40;;;2.30;52.50;;;;;;5054275;28;20472;-79
2022/03/12 01:00:34;;;;;;;13.93;6.82;;;2.20;52.30;;;;;;5072493;28;20032;-79
2022/03/12 01:03:00;;;;;;;12.20;7.00;;;2.20;53.10;;;;;;5054075;28;20484;-79
2022/03/12 01:05:42;;;;;;;14.63;6.95;;;2.20;51.00;;;;;;5072639;28;20025;-79
2022/03/12 01:08:08;;;;;;;13.70;6.78;;;2.20;50.90;;;;;;5054548;28;20060;-79
2022/03/12 01:10:34;;;;;;;16.88;8.07;;;2.20;51.00;;;;;;5054675;28;20056;-79
2022/03/12 01:13:01;;;;;;;15.32;7.03;;;2.20;50.40;;;;;;5054219;28;20119;-79
2022/03/12 01:15:27;;;;;;;21.13;8.35;;;2.20;50.30;;;;;;5072466;28;20025;-79
2022/03/12 01:17:52;;;;;;;14.77;7.63;;;2.20;51.00;;;;;;5054225;28;20035;-79
2022/03/12 01:20:22;;;;;;;17.60;6.95;;;2.20;50.60;;;;;;5072231;28;20127;-79
2022/03/12 01:22:48;;;;;;;19.95;7.97;;;2.20;50.60;;;;;;5072039;28;20384;-79
2022/03/12 01:25:13;;;;;;;14.43;7.28;;;2.10;49.90;;;;;;5054055;28;20021;-79
2022/03/12 01:27:39;;;;;;;13.65;7.13;;;2.20;49.80;;;;;;5071742;28;20039;-79
2022/03/12 01:30:07;;;;;;;12.30;6.72;;;2.20;49.40;;;;;;5053765;28;20425;-79
2022/03/12 01:32:34;;;;;;;18.77;8.32;;;2.10;48.60;;;;;;5054329;28;20029;-79
2022/03/12 01:34:59;;;;;;;14.88;7.18;;;2.20;48.70;;;;;;5054020;28;20032;-79
2022/03/12 01:37:25;;;;;;;13.65;7.47;;;2.20;48.90;;;;;;5071753;28;20029;-78
2022/03/12 01:39:51;;;;;;;18.17;7.18;;;2.20;47.70;;;;;;5071822;28;20027;-79
2022/03/12 01:42:21;;;;;;;12.98;7.47;;;2.20;47.00;;;;;;5072046;28;20520;-79
2022/03/12 01:44:47;;;;;;;11.98;6.82;;;2.20;47.60;;;;;;5071742;28;20492;-80
2022/03/12 01:47:15;;;;;;;16.15;7.47;;;2.20;47.90;;;;;;5063709;28;20035;-80
2022/03/12 01:49:42;;;;;;;16.15;7.80;;;2.20;47.90;;;;;;5075937;28;20017;-79
2022/03/12 01:52:07;;;;;;;16.25;6.72;;;2.20;47.20;;;;;;5068778;28;20051;-79
2022/03/12 01:54:34;;;;;;;13.50;6.93;;;2.20;47.70;;;;;;5075166;28;20044;-80
2022/03/12 01:57:00;;;;;;;13.07;6.82;;;2.20;48.20;;;;;;5075257;28;20502;-79
2022/03/12 01:59:26;;;;;;;13.27;6.65;;;2.20;47.70;;;;;;5055832;28;20029;-79
2022/03/12 02:01:52;;;;;;;14.57;7.30;;;2.20;47.70;;;;;;5055411;28;20028;-79
2022/03/12 02:04:22;;;;;;;15.23;6.53;;;2.20;47.80;;;;;;5074186;28;20028;-79
2022/03/12 02:06:50;;;;;;;14.25;7.03;;;2.10;48.30;;;;;;5075429;28;20047;-79
2022/03/12 02:09:16;;;;;;;12.13;6.82;;;2.10;48.40;;;;;;5074728;28;20024;-79
2022/03/12 02:11:51;;;;;;;16.60;7.05;;;2.10;47.00;;;;;;5075475;28;20031;-79
2022/03/12 02:14:19;;;;;;;21.93;7.30;;;2.10;47.70;;;;;;5072635;28;20029;-80
2022/03/12 02:16:54;;;;;;;19.38;6.93;;;2.00;47.40;;;;;;5057092;28;20031;-79
2022/03/12 02:19:22;;;;;;;15.57;7.50;;;2.10;46.90;;;;;;5074858;28;20087;-79
2022/03/12 02:22:06;;;;;;;13.77;7.18;;;2.10;46.90;;;;;;5057060;28;20081;-79
2022/03/12 02:24:34;;;;;;;12.23;6.43;;;2.10;45.50;;;;;;5074555;28;20100;-80
2022/03/12 02:27:01;;;;;;;11.93;6.63;;;2.10;45.40;;;;;;5074637;28;20523;-80
2022/03/12 02:29:28;;;;;;;15.52;6.25;;;2.10;44.90;;;;;;5075074;28;20516;-79
2022/03/12 02:32:00;;;;;;;12.65;6.70;;;2.10;43.00;;;;;;5056480;28;20117;-79
2022/03/12 02:34:30;;;;;;;13.27;6.50;;;2.20;43.70;;;;;;5074558;28;20037;-79
2022/03/12 02:36:57;;;;;;;11.63;5.88;;;2.20;43.10;;;;;;5056475;28;20029;-79
2022/03/12 02:39:23;;;;;;;12.35;6.25;;;2.20;42.90;;;;;;5074609;28;20162;-79
2022/03/12 02:41:49;;;;;;;11.48;6.25;;;2.30;42.50;;;;;;5071517;28;21695;-79
2022/03/12 02:44:22;;;;;;;12.50;6.18;;;2.30;40.90;;;;;;5056147;28;20361;-79
2022/03/12 02:47:15;;;;;;;8.80;5.38;;;2.40;40.40;;;;;;5074566;28;20027;-79
2022/03/12 02:49:48;;;;;;;11.55;6.22;;;2.40;38.90;;;;;;5048500;28;20016;-79
2022/03/12 02:52:18;;;;;;;11.00;5.10;;;2.40;38.50;;;;;;5074165;28;20058;-79
2022/03/12 02:54:44;;;;;;;18.88;6.75;;;2.50;39.00;;;;;;5073806;28;20040;-79
2022/03/12 02:57:12;;;;;;;10.30;4.90;;;2.50;39.10;;;;;;5073852;28;20029;-79
2022/03/12 02:59:40;;;;;;;9.75;4.78;;;2.50;38.70;;;;;;5067309;28;20424;-79
2022/03/12 03:02:07;;;;;;;13.18;6.00;;;2.50;37.50;;;;;;5058962;28;20062;-79
2022/03/12 03:04:34;;;;;;;6.97;4.57;;;2.50;36.60;;;;;;5074471;28;20464;-79
2022/03/12 03:07:04;;;;;;;10.60;5.32;;;2.60;36.80;;;;;;5056027;28;20380;-79
2022/03/12 03:09:30;;;;;;;10.40;4.32;;;2.60;35.90;;;;;;5073957;28;20376;-79
2022/03/12 03:11:57;;;;;;;13.65;4.90;;;2.60;35.10;;;;;;5073606;28;20029;-79
2022/03/12 03:14:26;;;;;;;7.85;4.28;;;2.70;35.40;;;;;;5045144;28;20028;-79
2022/03/12 03:16:53;;;;;;;11.75;4.93;;;2.70;36.10;;;;;;5055909;28;20029;-79
2022/03/12 03:19:25;;;;;;;12.10;4.93;;;2.70;35.80;;;;;;5074290;28;20029;-80
2022/03/12 03:21:56;;;;;;;7.85;4.03;;;2.80;34.30;;;;;;5074031;28;20021;-80
2022/03/12 03:24:22;;;;;;;7.75;4.25;;;2.80;34.30;;;;;;5073992;28;20020;-80
2022/03/12 03:26:48;;;;;;;11.57;4.80;;;2.80;33.90;;;;;;5055666;28;20353;-80
2022/03/12 03:29:15;;;;;;;15.50;4.90;;;2.90;34.20;;;;;;5073907;28;20039;-79
2022/03/12 03:31:41;;;;;;;11.43;5.03;;;2.90;33.80;;;;;;5055589;28;20119;-79
2022/03/12 03:34:06;;;;;;;10.90;4.93;;;2.90;33.70;;;;;;5073767;28;20024;-80
2022/03/12 03:36:34;;;;;;;12.48;5.03;;;2.90;33.10;;;;;;5073693;28;20042;-80
2022/03/12 03:39:00;;;;;;;10.25;4.32;;;3.00;33.60;;;;;;5073072;28;20021;-80
2022/03/12 03:41:25;;;;;;;8.27;4.18;;;3.00;33.80;;;;;;5073020;28;20036;-79
2022/03/12 03:43:52;;;;;;;7.78;3.83;;;3.00;33.40;;;;;;5073186;28;20025;-79
2022/03/12 03:46:20;;;;;;;8.70;4.72;;;3.00;33.90;;;;;;5073719;28;20023;-80
2022/03/12 03:48:48;;;;;;;6.80;3.95;;;3.00;32.10;;;;;;5054946;28;20039;-79
2022/03/12 03:51:14;;;;;;;6.82;3.75;;;3.00;32.40;;;;;;5073559;28;20024;-79
2022/03/12 03:53:41;;;;;;;11.57;4.90;;;3.00;32.70;;;;;;5072041;28;20053;-79
2022/03/12 03:56:06;;;;;;;15.77;4.78;;;3.00;32.30;;;;;;5055875;28;20461;-79
2022/03/12 03:58:34;;;;;;;14.15;4.90;;;3.00;32.90;;;;;;5055229;28;20028;-79
2022/03/12 04:01:03;;;;;;;14.10;4.82;;;3.00;33.10;;;;;;5073033;28;20035;-79
2022/03/12 04:03:33;;;;;;;7.90;4.90;;;3.00;32.10;;;;;;5072557;28;20082;-80
2022/03/12 04:06:04;;;;;;;14.77;4.55;;;3.00;32.70;;;;;;5072956;28;20044;-79
2022/03/12 04:08:31;;;;;;;7.88;3.92;;;3.00;31.30;;;;;;5072190;28;20024;-79
2022/03/12 04:10:56;;;;;;;8.43;4.68;;;3.00;32.40;;;;;;5072317;28;20036;-79
2022/03/12 04:13:24;;;;;;;5.85;4.30;;;3.10;32.50;;;;;;5054700;28;20031;-78
2022/03/12 04:15:51;;;;;;;8.05;4.15;;;3.10;32.70;;;;;;5073014;28;20020;-79
2022/03/12 04:18:21;;;;;;;9.50;5.15;;;3.10;31.70;;;;;;5054887;28;20033;-79
2022/03/12 04:20:47;;;;;;;9.35;4.38;;;3.10;32.20;;;;;;5072401;28;20036;-79
2022/03/12 04:23:18;;;;;;;8.13;4.15;;;3.10;32.00;;;;;;5054448;28;20016;-79
2022/03/12 04:25:51;;;;;;;12.85;5.38;;;3.10;32.60;;;;;;5067251;28;20373;-80
2022/03/12 04:28:17;;;;;;;8.80;5.18;;;3.10;31.50;;;;;;5071329;28;20360;-79
2022/03/12 04:30:45;;;;;;;8.52;5.43;;;3.10;32.70;;;;;;5072892;28;20028;-80
2022/03/12 04:33:14;;;;;;;11.55;4.88;;;3.00;35.40;;;;;;5054462;28;20044;-80
2022/03/12 04:35:41;;;;;;;12.02;5.10;;;2.90;36.10;;;;;;5072940;28;20099;-79
2022/03/12 04:38:09;;;;;;;14.43;6.03;;;2.80;33.80;;;;;;5072514;28;20029;-80
2022/03/12 04:40:39;;;;;;;13.15;6.55;;;2.70;37.30;;;;;;5072433;28;20024;-80
2022/03/12 04:43:06;;;;;;;8.52;5.38;;;2.50;38.80;;;;;;5071774;28;20040;-79
2022/03/12 04:45:32;;;;;;;10.75;5.55;;;2.30;39.80;;;;;;5054331;28;20027;-79
2022/03/12 04:47:58;;;;;;;13.45;5.85;;;2.20;39.20;;;;;;5072560;28;20013;-79
2022/03/12 04:50:24;;;;;;;10.45;5.88;;;2.10;40.00;;;;;;5072374;28;20039;-79
2022/03/12 04:52:52;;;;;;;10.77;5.65;;;2.10;40.50;;;;;;5071708;28;20040;-79
2022/03/12 04:55:22;;;;;;;9.10;5.50;;;2.00;40.80;;;;;;5072407;28;20059;-79
2022/03/12 04:57:48;;;;;;;11.15;5.72;;;1.90;40.60;;;;;;5054577;28;20364;-79
2022/03/12 05:00:18;;;;;;;13.82;5.50;;;1.90;40.30;;;;;;5072376;28;20021;-79
2022/03/12 05:02:47;;;;;;;11.25;5.05;;;1.90;39.60;;;;;;5072128;28;20033;-79
2022/03/12 05:05:14;;;;;;;9.15;4.15;;;1.90;39.50;;;;;;5054771;28;20108;-79
2022/03/12 05:07:45;;;;;;;7.80;4.43;;;2.00;35.40;;;;;;5072003;28;20024;-79
2022/03/12 05:10:12;;;;;;;8.68;4.85;;;2.10;34.20;;;;;;5072371;28;20361;-79
2022/03/12 05:12:40;;;;;;;9.40;4.53;;;2.20;34.60;;;;;;5072235;28;20024;-80
2022/03/12 05:15:14;;;;;;;7.45;4.38;;;2.40;33.60;;;;;;5072397;28;20025;-79
2022/03/12 05:17:46;;;;;;;9.20;5.13;;;2.40;33.50;;;;;;5072350;28;20460;-79
2022/03/12 05:20:13;;;;;;;8.88;5.20;;;2.50;33.40;;;;;;5055905;28;20400;-79
2022/03/12 05:22:39;;;;;;;8.40;4.30;;;2.50;33.70;;;;;;5075847;28;20031;-83
2022/03/12 05:25:05;;;;;;;7.07;4.40;;;2.60;33.20;;;;;;5076571;28;20025;-84
2022/03/12 05:28:02;;;;;;;7.63;4.22;;;2.60;33.20;;;;;;5058284;28;20074;-84
2022/03/12 05:30:27;;;;;;;9.13;4.72;;;2.50;33.70;;;;;;5076353;28;20407;-85
2022/03/12 05:32:53;;;;;;;12.63;5.30;;;2.50;35.60;;;;;;5076318;28;20028;-83
2022/03/12 05:35:20;;;;;;;10.18;5.25;;;2.40;36.10;;;;;;5076398;28;20158;-84
2022/03/12 05:37:53;;;;;;;9.95;5.07;;;2.40;36.70;;;;;;5076253;28;20476;-83
2022/03/12 05:40:20;;;;;;;8.23;4.82;;;2.30;37.50;;;;;;5076452;28;20499;-84
2022/03/12 05:42:49;;;;;;;11.60;5.43;;;2.20;37.50;;;;;;5076133;28;20020;-84
2022/03/12 05:45:18;;;;;;;7.93;4.75;;;2.10;38.30;;;;;;5076250;28;20027;-84
2022/03/12 05:47:44;;;;;;;7.38;4.93;;;2.10;38.40;;;;;;5075891;28;20024;-84
2022/03/12 05:50:26;;;;;;;6.57;4.13;;;2.00;37.80;;;;;;5058192;28;20028;-84
2022/03/12 05:52:55;;;;;;;10.43;4.35;;;2.00;37.30;;;;;;5057620;28;20017;-84
2022/03/12 05:55:23;;;;;;;11.68;4.53;;;2.10;35.30;;;;;;5075988;28;20025;-84
2022/03/12 05:57:49;;;;;;;7.85;3.85;;;2.40;34.40;;;;;;5075980;28;20024;-84
2022/03/12 06:00:16;;;;;;;8.05;4.45;;;2.40;33.40;;;;;;5075966;28;20033;-84
2022/03/12 06:02:48;;;;;;;9.15;4.18;;;2.40;33.70;;;;;;5057979;28;20068;-83
2022/03/12 06:05:21;;;;;;;10.18;5.25;;;2.40;34.50;;;;;;5075758;28;20391;-84
2022/03/12 06:07:47;;;;;;;9.70;5.63;;;2.50;35.60;;;;;;5057641;28;20116;-84
2022/03/12 06:10:16;;;;;;;8.95;4.68;;;2.40;36.70;;;;;;5057907;28;20370;-83
2022/03/12 06:12:43;;;;;;;13.80;5.35;;;2.40;37.40;;;;;;5075561;28;20027;-83
2022/03/12 06:15:10;;;;;;;9.55;4.65;;;2.30;37.40;;;;;;5075453;28;20032;-83
2022/03/12 06:17:36;;;;;;;8.63;5.72;;;2.20;37.90;;;;;;5075003;28;20039;-85
2022/03/12 06:20:03;;;;;;;8.82;4.63;;;2.10;38.10;;;;;;5074933;28;20377;-85
2022/03/12 06:22:28;;;;;;;12.82;4.90;;;2.10;38.30;;;;;;5074674;28;20029;-84
2022/03/12 06:24:54;;;;;;;8.40;4.82;;;2.10;38.00;;;;;;5075351;28;20025;-85
2022/03/12 06:27:22;;;;;;;9.95;4.35;;;2.10;38.50;;;;;;5057351;28;20024;-85
2022/03/12 06:29:47;;;;;;;9.95;5.07;;;2.20;38.30;;;;;;5075249;28;20396;-85
2022/03/12 06:32:13;;;;;;;12.82;6.65;;;2.20;38.20;;;;;;5074087;28;20054;-85
2022/03/12 06:34:53;;;;;;;8.88;5.45;;;2.20;37.70;;;;;;5075303;28;20021;-84
2022/03/12 06:37:18;;;;;;;9.15;5.13;;;2.30;37.00;;;;;;5073902;28;20025;-84
2022/03/12 06:39:44;;;;;;;9.60;5.13;;;2.30;37.30;;;;;;5074877;28;20515;-84
2022/03/12 06:42:10;;;;;;;8.02;4.70;;;2.40;38.10;;;;;;5056639;28;20031;-84
2022/03/12 06:44:37;;;;;;;7.35;4.13;;;2.40;37.30;;;;;;5074961;28;20029;-84
2022/03/12 06:47:08;;;;;;;12.70;4.95;;;2.50;37.00;;;;;;5073954;28;20013;-83
2022/03/12 06:49:35;;;;;;;9.15;4.63;;;2.60;37.20;;;;;;5057028;28;20093;-83
2022/03/12 06:52:01;;;;;;;7.47;4.10;;;2.60;37.20;;;;;;5075031;28;20397;-84
2022/03/12 06:54:27;;;;;;;9.68;5.32;;;2.60;37.00;;;;;;5074616;28;20044;-84
2022/03/12 06:56:55;;;;;;;8.57;4.53;;;2.70;37.30;;;;;;5074994;28;20031;-84
2022/03/12 06:59:20;;;;;;;8.30;4.82;;;2.80;35.70;;;;;;5074715;28;20024;-83
2022/03/12 07:01:46;;;;;;;9.55;4.97;;;2.80;35.50;;;;;;5073545;28;20032;-84
2022/03/12 07:04:12;;;;;;;7.72;4.55;;;2.90;36.00;;;;;;5073733;28;20021;-84
2022/03/12 07:06:37;;;;;;;7.63;4.13;;;3.00;35.70;;;;;;5074170;28;20414;-84
2022/03/12 07:09:03;;;;;;;9.05;4.70;;;3.10;33.70;;;;;;5073645;28;20472;-84
2022/03/12 07:11:31;;;;;;;9.55;5.13;;;3.20;33.90;;;;;;5073702;28;20434;-84
2022/03/12 07:13:57;;;;;;;12.02;5.47;;;3.30;33.80;;;;;;5073760;28;20028;-84
2022/03/12 07:16:23;;;;;;;9.95;5.35;;;3.30;34.60;;;;;;5056052;28;20024;-84
2022/03/12 07:18:49;;;;;;;10.15;5.53;;;3.30;33.70;;;;;;5073691;28;20028;-84
2022/03/12 07:21:14;;;;;;;13.48;5.03;;;3.40;33.00;;;;;;5055640;28;20028;-84
2022/03/12 07:23:40;;;;;;;11.65;5.00;;;3.40;32.20;;;;;;5051560;28;20025;-84
2022/03/12 07:26:06;;;;;;;6.85;4.15;;;3.50;32.20;;;;;;5055782;28;20024;-84
2022/03/12 07:28:32;;;;;;;12.00;5.57;;;3.50;33.60;;;;;;5074032;28;20024;-84
2022/03/12 07:30:58;;;;;;;13.23;5.22;;;3.60;32.70;;;;;;5073521;28;20025;-84
2022/03/12 07:33:24;;;;;;;10.60;4.93;;;3.60;33.40;;;;;;5073169;28;20035;-84
2022/03/12 07:35:50;;;;;;;13.60;4.97;;;3.60;33.20;;;;;;5073829;28;20381;-84
2022/03/12 07:38:15;;;;;;;12.75;5.80;;;3.60;33.20;;;;;;5072698;28;20036;-84
2022/03/12 07:40:41;;;;;;;12.50;4.90;;;3.70;34.20;;;;;;5055463;28;20481;-83
2022/03/12 07:43:07;;;;;;;12.73;5.25;;;3.70;34.70;;;;;;5073559;28;20016;-84
2022/03/12 07:45:33;;;;;;;12.55;5.10;;;3.70;33.80;;;;;;5073376;28;20525;-84
2022/03/12 07:47:59;;;;;;;18.27;5.30;;;3.80;33.80;;;;;;5066848;28;20025;-84
2022/03/12 07:50:26;;;;;;;10.18;5.43;;;3.80;34.00;;;;;;5055240;28;20035;-84
2022/03/12 07:52:52;;;;;;;11.57;5.97;;;3.90;34.20;;;;;;5071167;28;20009;-84
2022/03/12 07:55:17;;;;;;;10.93;5.93;;;3.90;34.40;;;;;;5065636;28;20389;-84
2022/03/12 07:57:43;;;;;;;11.05;5.45;;;4.00;35.40;;;;;;5064401;28;20070;-84
2022/03/12 08:00:11;;;;;;;12.73;5.68;;;4.00;35.80;;;;;;5073132;28;20492;-84
2022/03/12 08:02:37;;;;;;;14.77;6.15;;;4.00;35.30;;;;;;5054948;28;20119;-84
2022/03/12 08:05:03;;;;;;;10.68;4.80;;;4.10;35.30;;;;;;5055290;28;20079;-84
2022/03/12 08:07:30;;;;;;;8.95;4.88;;;4.20;34.60;;;;;;5054419;28;20028;-84
2022/03/12 08:09:56;;;;;;;6.63;4.32;;;4.30;34.80;;;;;;5054986;28;20032;-86
2022/03/12 08:12:31;;;;;;;8.63;4.93;;;4.40;33.60;;;;;;5072988;28;20017;-84
2022/03/12 08:14:58;;;;;;;7.10;4.63;;;4.40;34.30;;;;;;5055390;28;20492;-84
2022/03/12 08:17:24;;;;;;;14.70;5.03;;;4.50;34.40;;;;;;5054885;28;20442;-84
2022/03/12 08:19:50;;;;;;;9.85;5.03;;;4.50;34.10;;;;;;5072596;28;20024;-84
2022/03/12 08:22:16;;;;;;;7.60;4.30;;;4.60;34.10;;;;;;5054529;28;20059;-84
2022/03/12 08:24:42;;;;;;;7.88;4.75;;;4.60;33.90;;;;;;5072780;28;20020;-86
2022/03/12 08:27:09;;;;;;;11.95;5.10;;;4.70;34.50;;;;;;5054454;28;20029;-84
2022/03/12 08:29:34;;;;;;;8.43;4.57;;;4.80;35.30;;;;;;5066763;28;20029;-84
2022/03/12 08:32:01;;;;;;;11.52;4.88;;;4.90;35.70;;;;;;5072470;28;20032;-84
2022/03/12 08:34:27;;;;;;;8.38;4.72;;;5.00;35.40;;;;;;5054212;28;20024;-85
2022/03/12 08:36:52;;;;;;;8.95;4.43;;;5.20;34.30;;;;;;5072806;28;20025;-84
2022/03/12 08:39:19;;;;;;;10.30;5.05;;;5.20;34.10;;;;;;5054275;28;20055;-85
2022/03/12 08:41:45;;;;;;;8.73;4.40;;;5.40;33.60;;;;;;5072471;28;20037;-84
2022/03/12 08:44:11;;;;;;;7.47;4.70;;;5.50;33.60;;;;;;5071286;28;20048;-84
2022/03/12 08:46:52;;;;;;;6.57;4.13;;;5.50;33.70;;;;;;5072467;28;20492;-84
2022/03/12 08:49:18;;;;;;;10.55;4.47;;;5.60;34.60;;;;;;5067017;28;20107;-84
2022/03/12 08:51:44;;;;;;;6.88;4.32;;;5.80;34.40;;;;;;5072176;28;20029;-84
2022/03/12 08:54:09;;;;;;;8.00;4.50;;;5.80;33.90;;;;;;5071832;28;20044;-85
2022/03/12 08:56:37;;;;;;;6.55;4.00;;;6.00;34.20;;;;;;5072192;28;20036;-85
2022/03/12 08:59:03;;;;;;;8.32;4.55;;;6.10;34.50;;;;;;5071176;28;20024;-85
2022/03/12 09:01:29;;;;;;;7.22;4.43;;;6.20;34.00;;;;;;5071996;28;20043;-86
2022/03/12 09:03:56;;;;;;;12.02;4.90;;;6.30;33.80;;;;;;5066043;28;20033;-84
2022/03/12 09:06:23;;;;;;;9.88;4.88;;;6.40;33.60;;;;;;5077103;28;21236;-85
2022/03/12 09:08:49;;;;;;;7.00;4.30;;;6.50;33.40;;;;;;5081680;28;20016;-85
2022/03/12 09:11:41;;;;;;;9.80;5.60;;;6.60;33.00;;;;;;5072549;28;20060;-85
2022/03/12 09:14:06;;;;;;;8.48;4.47;;;6.60;33.30;;;;;;5071532;28;20032;-85
2022/03/12 09:16:32;;;;;;;8.95;4.25;;;6.70;33.60;;;;;;5069984;28;20561;-84
2022/03/12 09:18:57;;;;;;;13.70;4.05;;;6.70;33.80;;;;;;5071182;28;20037;-84
2022/03/12 09:21:24;;;;;;;7.40;4.28;;;6.70;33.60;;;;;;5071666;28;20362;-84
2022/03/12 09:23:49;;;;;;;5.78;3.72;;;6.80;31.80;;;;;;5071062;28;20024;-84
2022/03/12 09:26:18;;;;;;;16.83;5.53;;;6.80;32.20;;;;;;5067249;28;20032;-83
2022/03/12 09:28:44;;;;;;;6.78;4.60;;;6.80;32.30;;;;;;5071247;28;20139;-83
2022/03/12 09:31:12;;;;;;;9.07;4.32;;;6.90;31.80;;;;;;5072134;28;20021;-84
2022/03/12 09:33:38;;;;;;;8.70;4.80;;;7.10;31.80;;;;;;5071736;28;20103;-83
2022/03/12 09:36:06;;;;;;;7.10;4.18;;;7.20;32.80;;;;;;5072174;28;20021;-84
2022/03/12 09:38:32;;;;;;;9.10;4.00;;;7.30;33.40;;;;;;5071692;28;20021;-84
2022/03/12 09:40:57;;;;;;;8.73;4.75;;;7.30;32.30;;;;;;5071914;28;20028;-84
2022/03/12 09:43:53;;;;;;;8.70;3.95;;;7.40;32.50;;;;;;5071564;28;20541;-84
2022/03/12 09:46:19;;;;;;;9.55;4.68;;;7.30;31.10;;;;;;5071564;28;20024;-84
2022/03/12 09:48:44;;;;;;;13.38;4.65;;;7.30;31.70;;;;;;5071098;28;20562;-85
2022/03/12 09:51:11;;;;;;;7.03;4.55;;;7.30;32.60;;;;;;5064291;28;20441;-84
2022/03/12 09:53:37;;;;;;;10.57;4.22;;;7.20;31.30;;;;;;5063448;28;20186;-84
2022/03/12 09:56:03;;;;;;;10.13;4.80;;;7.10;31.20;;;;;;5053206;28;20025;-84
2022/03/12 09:58:29;;;;;;;8.43;4.50;;;7.10;31.00;;;;;;5070911;28;20040;-84
2022/03/12 10:01:04;;;;;;;8.45;4.55;;;7.00;30.50;;;;;;5053804;28;20033;-84
2022/03/12 10:03:30;;;;;;;7.20;4.20;;;6.90;31.90;;;;;;5042734;28;20503;-83
2022/03/12 10:05:55;;;;;;;9.70;4.72;;;6.80;31.40;;;;;;5053754;28;20020;-83
2022/03/12 10:08:22;;;;;;;7.97;4.85;;;6.90;30.80;;;;;;5055113;28;20027;-83
2022/03/12 10:10:48;;;;;;;8.20;4.40;;;6.90;31.90;;;;;;5074402;28;20024;-83
2022/03/12 10:13:13;;;;;;;10.02;4.65;;;6.90;31.20;;;;;;5056422;28;20043;-84
2022/03/12 10:15:40;;;;;;;12.40;4.70;;;6.90;31.80;;;;;;5074924;28;20413;-83
2022/03/12 10:18:06;;;;;;;11.65;5.30;;;7.00;33.00;;;;;;5072634;28;20054;-83
2022/03/12 10:20:32;;;;;;;8.23;4.97;;;7.30;31.30;;;;;;5075321;28;20056;-83
2022/03/12 10:22:58;;;;;;;7.00;4.55;;;7.40;31.60;;;;;;5073902;28;20473;-82
2022/03/12 10:25:24;;;;;;;8.93;4.22;;;7.60;31.60;;;;;;5074654;28;20070;-83
2022/03/12 10:27:49;;;;;;;7.90;4.10;;;7.70;29.90;;;;;;5074209;28;20029;-83
2022/03/12 10:30:16;;;;;;;11.85;4.80;;;7.80;29.80;;;;;;5075199;28;20415;-83
2022/03/12 10:32:45;;;;;;;7.30;4.35;;;7.90;29.60;;;;;;5073573;28;20024;-83
2022/03/12 10:35:12;;;;;;;7.35;4.25;;;7.90;30.40;;;;;;5073682;28;20025;-84
2022/03/12 10:37:38;;;;;;;28.55;7.90;;;7.90;31.80;;;;;;5073653;28;20051;-84
2022/03/12 10:40:09;;;;;;;13.48;5.72;;;8.10;31.70;;;;;;5074121;28;20434;-83
2022/03/12 10:42:53;;;;;;;14.32;4.55;;;8.20;30.10;;;;;;5067959;28;20165;-82
2022/03/12 10:45:24;;;;;;;8.88;4.70;;;8.30;29.30;;;;;;5073917;28;20025;-83
2022/03/12 10:47:55;;;;;;;8.57;4.63;;;8.40;28.90;;;;;;5055603;28;20059;-84
2022/03/12 10:50:27;;;;;;;10.60;4.90;;;8.40;29.40;;;;;;5073943;28;20020;-83
2022/03/12 10:52:56;;;;;;;8.73;4.43;;;8.50;29.20;;;;;;5073348;28;20070;-84
2022/03/12 10:55:28;;;;;;;10.98;4.75;;;8.60;29.00;;;;;;5072455;28;20099;-85
2022/03/12 10:57:58;;;;;;;7.75;4.80;;;8.60;29.10;;;;;;5074249;28;20029;-84
2022/03/12 11:00:30;;;;;;;7.50;4.60;;;8.60;29.50;;;;;;5055610;28;20028;-84
2022/03/12 11:03:10;;;;;;;7.45;4.50;;;8.70;30.80;;;;;;5057445;28;20032;-84
2022/03/12 11:05:37;;;;;;;6.22;3.83;;;8.80;31.30;;;;;;5072881;28;20043;-84
2022/03/12 11:08:17;;;;;;;8.43;4.15;;;8.90;31.60;;;;;;5055143;28;20012;-88
2022/03/12 11:11:11;;;;;;;9.63;5.30;;;8.90;30.80;;;;;;5072581;28;20048;-86
2022/03/12 11:13:47;;;;;;;10.70;5.63;;;8.90;30.50;;;;;;5062239;28;20396;-86
2022/03/12 11:16:28;;;;;;;8.73;5.10;;;9.00;30.50;;;;;;5072953;28;20032;-85
2022/03/12 11:18:54;;;;;;;11.10;6.70;;;9.00;30.80;;;;;;5071297;28;20519;-84
2022/03/12 11:21:37;;;;;;;17.05;7.18;;;9.00;31.20;;;;;;5052632;28;20032;-85
2022/03/12 11:24:23;;;;;;;13.70;6.03;;;9.10;31.30;;;;;;5072436;28;20027;-85
2022/03/12 11:26:51;;;;;;;19.50;5.45;;;9.10;30.90;;;;;;5054446;28;20495;-84
2022/03/12 11:29:19;;;;;;;10.02;5.75;;;9.10;31.00;;;;;;5055048;28;20032;-85
2022/03/12 11:31:50;;;;;;;15.40;6.63;;;9.10;31.20;;;;;;5054961;28;20028;-84
2022/03/12 11:34:26;;;;;;;13.65;5.53;;;9.10;31.10;;;;;;5073187;28;20028;-85
2022/03/12 11:36:55;;;;;;;;;;;9.10;31.40;;;;;;5073108;28;20036;-85
2022/03/12 11:39:31;;;;;;;14.85;5.90;;;9.20;31.60;;;;;;5055158;28;19904;-85
2022/03/12 11:42:15;;;;;;;18.38;5.72;;;9.30;32.00;;;;;;5072637;28;20047;-84
2022/03/12 11:44:50;;;;;;;11.65;6.53;;;9.30;30.70;;;;;;5073156;28;20020;-84
2022/03/12 11:47:23;;;;;;;9.93;5.78;;;9.50;30.90;;;;;;5071630;28;20499;-85
2022/03/12 11:49:51;;;;;;;8.52;5.35;;;9.70;30.40;;;;;;5054487;28;20082;-84
2022/03/12 11:52:19;;;;;;;8.98;5.43;;;9.90;29.80;;;;;;5035356;28;20029;-85
2022/03/12 11:54:46;;;;;;;11.95;5.75;;;9.90;30.10;;;;;;5071562;28;20055;-84
2022/03/12 11:57:42;;;;;;;8.07;4.88;;;10.00;30.90;;;;;;5072393;28;20031;-85
2022/03/12 12:00:28;;;;;;;8.25;5.25;;;10.10;30.90;;;;;;5044546;28;20067;-85
2022/03/12 12:02:54;;;;;;;9.00;5.07;;;10.10;31.30;;;;;;5072770;28;20412;-84
2022/03/12 12:05:30;;;;;;;9.20;5.70;;;10.10;31.30;;;;;;5070485;28;20100;-84
2022/03/12 12:07:56;;;;;;;8.88;5.20;;;10.20;30.00;;;;;;5072788;28;20094;-85
2022/03/12 12:10:29;;;;;;;9.63;5.60;;;10.30;29.80;;;;;;5072798;28;20465;-84
2022/03/12 12:13:03;;;;;;;11.05;5.82;;;10.50;29.00;;;;;;5072935;28;20060;-84
2022/03/12 12:15:34;;;;;;;10.18;5.05;;;10.60;29.30;;;;;;5072458;28;20489;-84
2022/03/12 12:18:03;;;;;;;10.80;6.13;;;10.70;30.10;;;;;;5072235;28;20023;-83
2022/03/12 12:20:31;;;;;;;12.25;5.53;;;10.70;30.00;;;;;;5054087;28;20090;-83
2022/03/12 12:22:58;;;;;;;8.80;5.55;;;10.60;30.30;;;;;;5071878;28;20028;-90
2022/03/12 12:25:35;;;;;;;10.32;5.70;;;10.60;30.10;;;;;;5054932;28;20024;-83
2022/03/12 12:28:13;;;;;;;13.38;5.47;;;10.60;29.40;;;;;;5072391;28;20031;-83
2022/03/12 12:30:43;;;;;;;9.00;5.32;;;10.50;29.30;;;;;;5072214;28;20385;-83
2022/03/12 12:33:23;;;;;;;16.13;5.55;;;10.50;29.00;;;;;;5071381;28;20526;-83
2022/03/12 12:35:51;;;;;;;9.68;4.80;;;10.60;29.50;;;;;;5072104;28;20099;-83
2022/03/12 12:38:21;;;;;;;8.70;5.43;;;10.60;30.00;;;;;;5048718;28;20440;-83
2022/03/12 12:40:52;;;;;;;11.35;5.60;;;10.80;29.40;;;;;;5051979;28;20021;-83
2022/03/12 12:43:21;;;;;;;9.10;5.18;;;10.90;29.10;;;;;;5052361;28;20028;-83
2022/03/12 12:45:52;;;;;;;8.55;5.53;;;11.00;28.40;;;;;;5051967;28;20029;-83
2022/03/12 12:48:31;;;;;;;10.40;5.57;;;11.00;29.40;;;;;;5052067;28;20042;-82
2022/03/12 12:51:07;;;;;;;8.98;5.68;;;11.10;29.40;;;;;;5061071;28;20056;-82
2022/03/12 12:53:47;;;;;;;13.25;6.40;;;11.20;29.50;;;;;;5049514;28;20095;-83
2022/03/12 12:56:26;;;;;;;8.85;5.63;;;11.20;29.00;;;;;;5068627;28;20029;-83
2022/03/12 12:58:52;;;;;;;11.15;6.55;;;11.30;28.90;;;;;;5053432;28;20037;-83